Time;durP1;ratioP1;P1;durP2;ratioP2;P2;SDS_P1;SDS_P2;PMS_P1;PMS_P2;Temp;Humidity;BMP_temperature;BMP_pressure;BME280_temperature;BME280_humidity;BME280_pressure;Samples;Min_cycle;Max_cycle;Signal;HPM_P1;HPM_P2
2022/01/03 13:56:39;;;;;;;454.33;432.97;;;9.90;99.90;;;;;;4323938;31;4443117;-66
2022/01/03 13:59:06;;;;;;;476.10;452.93;;;10.00;99.90;;;;;;4449344;32;20612;-66
2022/01/03 14:01:33;;;;;;;480.50;457.03;;;9.90;99.90;;;;;;4456913;32;20215;-67
2022/01/03 14:04:03;;;;;;;470.23;447.83;;;10.00;99.90;;;;;;4448441;32;20189;-67
2022/01/03 14:06:33;;;;;;;504.03;479.63;;;10.00;99.90;;;;;;4449734;32;20178;-67
2022/01/03 14:09:10;;;;;;;487.97;464.23;;;10.00;99.90;;;;;;4448732;32;20228;-67
2022/01/03 14:11:43;;;;;;;420.40;400.80;;;10.10;99.90;;;;;;4447442;32;20161;-67
2022/01/03 14:14:12;;;;;;;434.50;414.27;;;10.00;99.90;;;;;;4456521;32;20204;-65
2022/01/03 14:16:53;;;;;;;408.83;390.43;;;10.00;99.90;;;;;;4449837;32;20174;-66
2022/01/03 14:19:21;;;;;;;397.03;379.00;;;10.00;99.90;;;;;;4447789;32;20575;-66
2022/01/03 14:21:49;;;;;;;404.87;386.63;;;9.90;99.90;;;;;;4447553;32;20510;-66
2022/01/03 14:24:24;;;;;;;379.90;362.90;;;9.90;99.90;;;;;;4457748;32;20574;-65
2022/01/03 14:26:58;;;;;;;346.77;331.37;;;9.90;99.90;;;;;;4448249;32;20207;-65
2022/01/03 14:29:41;;;;;;;382.07;364.57;;;9.80;99.90;;;;;;4448694;32;20182;-66
2022/01/03 14:32:12;;;;;;;367.17;351.10;;;9.80;99.90;;;;;;4448425;32;20153;-65
2022/01/03 14:34:49;;;;;;;365.47;349.13;;;9.90;99.90;;;;;;4447328;32;20175;-66
2022/01/03 14:37:23;;;;;;;355.53;339.40;;;9.90;99.90;;;;;;4448458;32;20584;-66
2022/01/03 14:40:01;;;;;;;355.73;340.60;;;10.00;99.90;;;;;;4458410;32;20159;-66
2022/01/03 14:42:31;;;;;;;345.50;330.53;;;10.00;99.90;;;;;;4447480;32;20169;-65
2022/01/03 14:45:13;;;;;;;320.93;307.30;;;10.00;99.90;;;;;;4448246;32;20231;-66
2022/01/03 14:47:40;;;;;;;320.77;306.73;;;9.90;99.90;;;;;;4447975;32;20205;-66
2022/01/03 14:50:08;;;;;;;316.90;302.63;;;9.90;99.90;;;;;;4446699;32;20162;-66
2022/01/03 14:52:36;;;;;;;303.70;290.13;;;9.90;99.90;;;;;;4447277;32;20204;-66
2022/01/03 14:55:07;;;;;;;302.13;288.67;;;9.80;99.90;;;;;;4446824;32;20186;-65
2022/01/03 14:57:42;;;;;;;291.47;278.80;;;9.80;99.90;;;;;;4446601;32;20262;-65
2022/01/03 15:00:10;;;;;;;295.63;283.20;;;9.80;99.90;;;;;;4446224;32;20271;-66
2022/01/03 15:02:39;;;;;;;302.63;289.93;;;9.70;99.90;;;;;;4446924;32;20180;-66
2022/01/03 15:05:10;;;;;;;314.67;301.57;;;9.70;99.90;;;;;;4446447;32;20163;-65
2022/01/03 15:07:53;;;;;;;309.10;295.50;;;9.70;99.90;;;;;;4437316;32;20195;-65
2022/01/03 15:10:20;;;;;;;303.93;290.73;;;9.70;99.90;;;;;;4434963;32;20211;-65
2022/01/03 15:12:52;;;;;;;308.17;294.47;;;9.80;99.90;;;;;;4436225;32;20189;-65
2022/01/03 15:15:22;;;;;;;324.53;310.57;;;9.90;99.90;;;;;;4437302;32;20161;-66
2022/01/03 15:17:59;;;;;;;297.90;284.73;;;9.90;99.90;;;;;;4436346;32;20162;-65
2022/01/03 15:20:33;;;;;;;318.60;304.87;;;10.00;99.90;;;;;;4435886;32;20163;-65
2022/01/03 15:23:06;;;;;;;293.80;281.17;;;10.00;99.90;;;;;;4436585;32;20229;-65
2022/01/03 15:25:35;;;;;;;288.77;276.17;;;9.90;99.90;;;;;;4438842;32;20171;-65
2022/01/03 15:28:03;;;;;;;306.00;293.33;;;9.90;99.90;;;;;;4436228;32;20641;-66
2022/01/03 15:30:37;;;;;;;282.20;270.37;;;9.80;99.90;;;;;;4436223;32;20149;-65
2022/01/03 15:33:04;;;;;;;281.23;269.50;;;9.80;99.90;;;;;;4436471;32;20193;-66
2022/01/03 15:35:31;;;;;;;281.50;269.90;;;9.70;99.90;;;;;;4436900;32;20199;-69
2022/01/03 15:37:58;;;;;;;269.40;258.00;;;9.60;99.90;;;;;;4437126;32;20661;-67
2022/01/03 15:40:29;;;;;;;267.47;255.60;;;9.50;99.90;;;;;;4436198;32;20584;-65
2022/01/03 15:42:59;;;;;;;282.77;270.87;;;9.50;99.90;;;;;;4436474;32;20603;-66
2022/01/03 15:45:36;;;;;;;291.10;278.83;;;9.40;99.90;;;;;;4438061;32;20163;-66
2022/01/03 15:48:04;;;;;;;303.23;290.27;;;9.40;99.90;;;;;;4439879;32;20158;-67
2022/01/03 15:50:31;;;;;;;306.97;294.07;;;9.30;99.90;;;;;;4443826;32;20171;-67
2022/01/03 15:52:58;;;;;;;311.23;298.07;;;9.30;99.90;;;;;;4435784;32;20171;-65
2022/01/03 15:55:28;;;;;;;316.67;303.00;;;9.20;99.90;;;;;;4434690;32;20197;-67
2022/01/03 15:57:58;;;;;;;298.13;285.07;;;9.20;99.90;;;;;;4435438;32;20170;-69
2022/01/03 16:00:30;;;;;;;324.17;310.67;;;9.20;99.90;;;;;;4435940;32;20179;-68
2022/01/03 16:03:04;;;;;;;318.27;304.37;;;9.20;99.90;;;;;;4436903;32;20515;-69
2022/01/03 16:05:35;;;;;;;338.33;324.10;;;9.20;99.90;;;;;;4439334;32;20163;-67
2022/01/03 16:08:03;;;;;;;328.87;314.77;;;9.20;99.90;;;;;;4435621;32;20193;-67
2022/01/03 16:10:45;;;;;;;321.23;307.93;;;9.20;99.90;;;;;;4438116;32;20217;-68
2022/01/03 16:13:12;;;;;;;343.20;328.87;;;9.20;99.90;;;;;;4434158;32;20188;-65
2022/01/03 16:15:44;;;;;;;346.70;332.00;;;9.20;99.90;;;;;;4436681;32;20185;-65
2022/01/03 16:18:11;;;;;;;338.63;324.30;;;9.10;99.90;;;;;;4436189;32;20219;-65
2022/01/03 16:20:40;;;;;;;347.20;332.07;;;9.10;99.90;;;;;;4445176;32;20244;-64
2022/01/03 16:23:07;;;;;;;337.63;323.10;;;9.10;99.90;;;;;;4436878;32;20158;-65
2022/01/03 16:25:36;;;;;;;342.30;328.07;;;9.10;99.90;;;;;;4436877;32;20203;-65
2022/01/03 16:28:14;;;;;;;344.33;329.47;;;9.00;99.90;;;;;;4435677;32;20188;-65
2022/01/03 16:30:45;;;;;;;340.70;326.67;;;9.00;99.90;;;;;;4440544;32;20539;-65
2022/01/03 16:33:22;;;;;;;;;;;;;;;;;;;;;
2022/01/03 16:38:46;;;;;;;347.40;332.27;;;8.90;99.90;;;;;;4438158;32;20582;-65
2022/01/03 16:41:23;;;;;;;337.40;322.97;;;8.80;99.90;;;;;;4438492;32;20638;-69
2022/01/03 16:43:56;;;;;;;352.40;337.10;;;8.80;99.90;;;;;;4436782;32;20158;-65
2022/01/03 16:46:28;;;;;;;347.00;331.90;;;8.90;99.90;;;;;;4435618;32;20169;-68
2022/01/03 16:49:01;;;;;;;367.73;352.03;;;8.90;99.90;;;;;;4438311;32;20232;-68
2022/01/03 16:51:37;;;;;;;382.70;365.67;;;8.90;99.90;;;;;;4432655;32;20155;-64
2022/01/03 16:54:04;;;;;;;383.07;366.33;;;8.90;99.90;;;;;;4438669;32;20163;-69
2022/01/03 16:56:41;;;;;;;373.80;357.77;;;8.90;99.90;;;;;;4436173;32;20183;-67
2022/01/03 16:59:12;;;;;;;367.00;351.37;;;9.00;99.90;;;;;;4435083;32;20222;-70
2022/01/03 17:01:59;;;;;;;383.63;367.07;;;9.00;99.90;;;;;;4434658;32;20250;-67
2022/01/03 17:04:43;;;;;;;359.43;343.87;;;9.00;99.90;;;;;;4435565;32;20156;-66
2022/01/03 17:07:33;;;;;;;362.20;346.80;;;9.00;99.90;;;;;;4438517;32;20209;-65
2022/01/03 17:10:20;;;;;;;359.50;343.73;;;8.90;99.90;;;;;;4378971;32;20149;-67
2022/01/03 17:12:51;;;;;;;347.27;331.97;;;8.90;99.90;;;;;;4384500;32;20210;-67
2022/01/03 17:15:18;;;;;;;373.33;357.37;;;8.90;99.90;;;;;;4381677;32;20188;-66
2022/01/03 17:17:49;;;;;;;367.27;351.57;;;8.90;99.90;;;;;;4378636;32;20186;-69
2022/01/03 17:20:17;;;;;;;352.73;337.30;;;8.90;99.90;;;;;;4379562;32;20167;-66
2022/01/03 17:22:48;;;;;;;389.40;372.50;;;8.90;99.90;;;;;;4380627;32;20165;-65
2022/01/03 17:25:15;;;;;;;387.87;370.67;;;8.80;99.90;;;;;;4381037;32;20165;-64
2022/01/03 17:27:45;;;;;;;393.30;376.33;;;8.90;99.90;;;;;;4381751;32;20173;-65
2022/01/03 17:30:33;;;;;;;391.33;374.43;;;8.90;99.90;;;;;;4382085;32;20217;-66
2022/01/03 17:33:06;;;;;;;388.23;371.50;;;9.00;99.90;;;;;;4379729;32;20195;-67
2022/01/03 17:35:35;;;;;;;405.30;387.23;;;9.00;99.90;;;;;;4375971;32;20208;-66
2022/01/03 17:38:04;;;;;;;403.07;385.60;;;9.00;99.90;;;;;;4379679;32;20701;-67
2022/01/03 17:40:31;;;;;;;399.03;381.63;;;9.10;99.90;;;;;;4375526;32;20168;-67
2022/01/03 17:43:01;;;;;;;395.93;378.60;;;9.10;99.90;;;;;;4376194;32;20184;-65
2022/01/03 17:45:31;;;;;;;395.80;378.50;;;9.10;99.90;;;;;;4380919;32;20192;-69
2022/01/03 17:47:58;;;;;;;402.57;384.83;;;9.00;99.90;;;;;;4422762;32;20237;-67
2022/01/03 17:50:27;;;;;;;405.10;387.43;;;9.00;99.90;;;;;;4433426;32;20168;-66
2022/01/03 17:52:56;;;;;;;389.30;372.23;;;9.00;99.90;;;;;;4435438;32;20147;-66
2022/01/03 17:55:23;;;;;;;411.00;393.17;;;9.00;99.90;;;;;;4435401;32;20504;-66
2022/01/03 17:57:50;;;;;;;410.20;392.10;;;8.90;99.90;;;;;;4435849;32;20226;-67
2022/01/03 18:00:17;;;;;;;431.80;412.87;;;8.90;99.90;;;;;;4435433;32;20169;-66
2022/01/03 18:02:45;;;;;;;412.50;394.23;;;8.90;99.90;;;;;;4434447;32;20152;-64
2022/01/03 18:05:15;;;;;;;410.07;391.57;;;8.80;99.90;;;;;;4434058;32;20618;-66
2022/01/03 18:07:43;;;;;;;435.20;415.73;;;8.80;99.90;;;;;;4435416;32;20194;-64
2022/01/03 18:10:10;;;;;;;425.40;405.77;;;8.80;99.90;;;;;;4436102;32;20178;-65
2022/01/03 18:12:37;;;;;;;430.70;411.20;;;8.90;99.90;;;;;;4435166;32;20207;-65
2022/01/03 18:15:05;;;;;;;429.83;410.10;;;8.90;99.90;;;;;;4433845;32;20240;-66
2022/01/03 18:17:32;;;;;;;420.07;400.90;;;8.90;99.90;;;;;;4433904;32;20205;-66
2022/01/03 18:20:01;;;;;;;414.90;396.07;;;8.90;99.90;;;;;;4435376;32;20532;-68
2022/01/03 18:22:28;;;;;;;439.00;419.30;;;8.80;99.90;;;;;;4432928;32;20177;-66
2022/01/03 18:25:00;;;;;;;432.33;412.57;;;8.80;99.90;;;;;;4436183;32;20193;-65
2022/01/03 18:27:27;;;;;;;428.53;409.27;;;8.70;99.90;;;;;;4435555;32;20208;-65
2022/01/03 18:29:55;;;;;;;432.17;412.90;;;8.70;99.90;;;;;;4449770;32;20179;-64
2022/01/03 18:32:26;;;;;;;446.90;426.97;;;8.70;99.90;;;;;;4435459;32;20505;-65
2022/01/03 18:34:57;;;;;;;439.40;419.40;;;8.70;99.90;;;;;;4436775;32;20181;-65
2022/01/03 18:37:28;;;;;;;434.83;415.13;;;8.70;99.90;;;;;;4436669;32;20223;-66
2022/01/03 18:40:03;;;;;;;443.97;423.90;;;8.70;99.90;;;;;;4435525;32;20199;-66
2022/01/03 18:42:30;;;;;;;439.00;419.30;;;8.70;99.90;;;;;;4437995;32;20147;-65
2022/01/03 18:44:57;;;;;;;452.40;431.53;;;8.70;99.90;;;;;;4438427;32;20217;-65
2022/01/03 18:47:24;;;;;;;469.97;448.47;;;8.60;99.90;;;;;;4439186;32;20477;-65
2022/01/03 18:49:54;;;;;;;443.10;423.03;;;8.60;99.90;;;;;;4439716;32;20152;-66
2022/01/03 18:52:22;;;;;;;447.40;427.03;;;8.60;99.90;;;;;;4437162;32;20194;-64
2022/01/03 18:54:51;;;;;;;462.97;441.87;;;8.60;99.90;;;;;;4444846;32;20215;-67
2022/01/03 18:57:23;;;;;;;473.50;451.03;;;8.60;99.90;;;;;;4437188;32;20159;-66
2022/01/03 18:59:54;;;;;;;451.27;430.73;;;8.60;99.90;;;;;;4438233;32;20516;-65
2022/01/03 19:02:28;;;;;;;432.47;412.70;;;8.60;99.90;;;;;;4437570;32;20203;-65
2022/01/03 19:04:55;;;;;;;475.47;452.97;;;8.50;99.90;;;;;;4445436;32;20151;-67
2022/01/03 19:07:22;;;;;;;460.63;438.77;;;8.60;99.90;;;;;;4439112;32;20163;-67
2022/01/03 19:09:49;;;;;;;479.17;456.80;;;8.60;99.90;;;;;;4439034;32;20469;-66
2022/01/03 19:12:16;;;;;;;481.63;458.77;;;8.60;99.90;;;;;;4442078;32;20175;-66
2022/01/03 19:14:44;;;;;;;491.53;468.57;;;8.60;99.90;;;;;;4438571;32;20575;-66
2022/01/03 19:17:13;;;;;;;499.23;475.43;;;8.70;99.90;;;;;;4437185;32;20178;-66
2022/01/03 19:19:48;;;;;;;494.83;471.23;;;8.60;99.90;;;;;;4437877;32;20147;-68
2022/01/03 19:22:15;;;;;;;497.03;472.93;;;8.60;99.90;;;;;;4438660;32;20143;-66
2022/01/03 19:24:45;;;;;;;503.90;479.40;;;8.60;99.90;;;;;;4437569;32;20215;-67
2022/01/03 19:27:18;;;;;;;487.90;465.17;;;8.60;99.90;;;;;;4437066;32;20158;-67
2022/01/03 19:29:46;;;;;;;508.07;483.70;;;8.60;99.90;;;;;;4436767;32;20152;-66
2022/01/03 19:32:16;;;;;;;507.83;483.57;;;8.60;99.90;;;;;;4438408;32;20280;-66
2022/01/03 19:40:14;;;;;;;509.77;485.10;;;8.60;99.90;;;;;;4437445;32;20168;-66
2022/01/03 19:42:46;;;;;;;527.77;501.83;;;8.60;99.90;;;;;;4436722;32;20199;-67
2022/01/03 19:45:20;;;;;;;527.13;501.17;;;8.70;99.90;;;;;;4437071;32;20151;-65
2022/01/03 19:47:47;;;;;;;509.80;485.10;;;8.60;99.90;;;;;;4434138;32;20193;-67
2022/01/03 19:50:14;;;;;;;519.00;493.73;;;8.70;99.90;;;;;;4437887;32;20205;-64
2022/01/03 19:52:41;;;;;;;538.70;511.30;;;8.70;99.90;;;;;;4436571;32;20171;-65
2022/01/03 19:55:12;;;;;;;547.67;521.03;;;8.70;99.90;;;;;;4436925;32;20206;-65
2022/01/03 19:57:42;;;;;;;525.03;498.97;;;8.70;99.90;;;;;;4436655;32;20208;-65
2022/01/03 20:00:15;;;;;;;544.27;517.07;;;8.70;99.90;;;;;;4436516;32;20145;-65
2022/01/03 20:02:43;;;;;;;521.23;496.17;;;8.70;99.90;;;;;;4436816;32;20173;-65
2022/01/03 20:05:10;;;;;;;532.40;506.00;;;8.70;99.90;;;;;;4436776;32;20215;-65
2022/01/03 20:07:37;;;;;;;540.37;513.50;;;8.70;99.90;;;;;;4437990;32;20238;-65
2022/01/03 20:10:05;;;;;;;536.93;509.93;;;8.70;99.90;;;;;;4438168;32;20167;-65
2022/01/03 20:12:34;;;;;;;535.03;508.00;;;8.70;99.90;;;;;;4437346;32;20147;-65
2022/01/03 20:15:04;;;;;;;540.83;513.67;;;8.70;99.90;;;;;;4436918;32;20172;-65
2022/01/03 20:17:43;;;;;;;523.93;498.50;;;8.70;99.90;;;;;;4436275;32;20206;-65
2022/01/03 20:20:13;;;;;;;528.87;501.83;;;8.70;99.90;;;;;;4439867;32;20150;-67
2022/01/03 20:22:42;;;;;;;529.07;502.27;;;8.70;99.90;;;;;;4437253;32;20514;-66
2022/01/03 20:25:11;;;;;;;542.93;515.47;;;8.70;99.90;;;;;;4436654;32;20237;-65
2022/01/03 20:27:41;;;;;;;539.33;512.67;;;8.70;99.90;;;;;;4433833;32;20573;-65
2022/01/03 20:30:12;;;;;;;543.30;516.13;;;8.70;99.90;;;;;;4437406;32;20207;-65
2022/01/03 20:32:41;;;;;;;548.23;520.37;;;8.70;99.90;;;;;;4438172;32;20190;-66
2022/01/03 20:35:09;;;;;;;535.60;508.77;;;8.70;99.90;;;;;;4437192;32;20197;-66
2022/01/03 20:37:36;;;;;;;555.23;527.93;;;8.80;99.90;;;;;;4437485;32;20685;-67
2022/01/03 20:40:04;;;;;;;550.07;522.10;;;8.80;99.90;;;;;;4440570;32;20579;-66
2022/01/03 20:42:36;;;;;;;549.53;521.67;;;8.80;99.90;;;;;;4435761;32;20166;-66
2022/01/03 20:45:04;;;;;;;566.77;538.23;;;8.80;99.90;;;;;;4436703;32;20192;-66
2022/01/03 20:47:31;;;;;;;536.13;509.50;;;8.80;99.90;;;;;;4439973;32;20245;-66
2022/01/03 20:50:02;;;;;;;536.67;509.60;;;8.80;99.90;;;;;;4435768;32;20623;-66
2022/01/03 20:52:30;;;;;;;553.33;525.90;;;8.80;99.90;;;;;;4437275;32;20175;-66
2022/01/03 20:54:59;;;;;;;544.57;517.90;;;8.70;99.90;;;;;;4436337;32;20161;-66
2022/01/03 20:57:28;;;;;;;553.53;525.70;;;8.60;99.90;;;;;;4448820;32;20163;-66
2022/01/03 20:59:55;;;;;;;562.60;534.13;;;8.60;99.90;;;;;;4436361;32;20601;-65
2022/01/03 21:02:22;;;;;;;538.60;511.27;;;8.60;99.90;;;;;;4435714;32;20218;-67
2022/01/03 21:04:49;;;;;;;549.87;521.93;;;8.70;99.90;;;;;;4435958;32;20194;-65
2022/01/03 21:07:17;;;;;;;547.10;519.33;;;8.70;99.90;;;;;;4435705;32;20146;-65
2022/01/03 21:09:44;;;;;;;550.37;522.27;;;8.70;99.90;;;;;;4436255;32;20574;-66
2022/01/03 21:12:12;;;;;;;546.67;519.33;;;8.60;99.90;;;;;;4436916;32;20149;-66
2022/01/03 21:14:39;;;;;;;541.47;514.50;;;8.60;99.90;;;;;;4436972;32;20252;-66
2022/01/03 21:17:12;;;;;;;535.50;509.57;;;8.60;99.90;;;;;;4436112;32;20152;-65
2022/01/03 21:19:39;;;;;;;529.77;502.83;;;8.70;99.90;;;;;;4436918;32;20570;-67
2022/01/03 21:22:14;;;;;;;542.60;515.43;;;8.70;99.90;;;;;;4437261;32;20180;-65
2022/01/03 21:24:44;;;;;;;545.50;517.63;;;8.70;99.90;;;;;;4435958;32;20484;-64
2022/01/03 21:27:11;;;;;;;543.10;516.07;;;8.60;99.90;;;;;;4434793;32;20562;-65
2022/01/03 21:29:41;;;;;;;547.80;519.53;;;8.70;99.90;;;;;;4436054;32;20620;-65
2022/01/03 21:32:08;;;;;;;536.70;510.10;;;8.60;99.90;;;;;;4435986;32;20219;-64
2022/01/03 21:34:35;;;;;;;537.93;510.40;;;8.60;99.90;;;;;;4437865;32;20165;-64
2022/01/03 21:37:08;;;;;;;540.60;513.13;;;8.70;99.90;;;;;;4436756;32;20174;-65
2022/01/03 21:39:36;;;;;;;560.80;531.33;;;8.70;99.90;;;;;;4435266;32;20147;-65
2022/01/03 21:42:06;;;;;;;558.37;529.67;;;8.70;99.90;;;;;;4443142;32;20186;-64
2022/01/03 21:44:37;;;;;;;554.80;526.63;;;8.70;99.90;;;;;;4435734;32;20466;-65
2022/01/03 21:47:08;;;;;;;558.43;529.87;;;8.70;99.90;;;;;;4436434;32;20168;-67
2022/01/03 21:49:34;;;;;;;545.97;518.67;;;8.80;99.90;;;;;;4434538;32;20172;-66
2022/01/03 21:52:08;;;;;;;543.83;516.70;;;8.80;99.90;;;;;;4434626;32;20224;-65
2022/01/03 21:54:35;;;;;;;572.23;543.00;;;8.80;99.90;;;;;;4434156;32;20191;-65
2022/01/03 21:57:04;;;;;;;567.00;538.17;;;8.80;99.90;;;;;;4435754;32;20174;-65
2022/01/03 21:59:33;;;;;;;541.50;513.87;;;8.80;99.90;;;;;;4434685;32;20173;-65
2022/01/03 22:02:01;;;;;;;562.40;533.67;;;8.80;99.90;;;;;;4435984;32;20194;-65
2022/01/03 22:04:27;;;;;;;557.13;528.53;;;8.80;99.90;;;;;;4435744;32;20143;-65
2022/01/03 22:07:01;;;;;;;565.13;536.60;;;8.80;99.90;;;;;;4436838;32;20207;-66
2022/01/03 22:09:29;;;;;;;556.80;528.40;;;8.80;99.90;;;;;;4435178;32;20274;-65
2022/01/03 22:11:56;;;;;;;557.80;529.73;;;8.80;99.90;;;;;;4436565;32;20563;-65
2022/01/03 22:14:25;;;;;;;553.70;525.63;;;8.80;99.90;;;;;;4435975;32;20150;-65
2022/01/03 22:16:53;;;;;;;558.00;529.70;;;8.80;99.90;;;;;;4437649;32;20177;-65
2022/01/03 22:19:20;;;;;;;538.93;511.67;;;8.80;99.90;;;;;;4439948;32;20607;-65
2022/01/03 22:21:47;;;;;;;545.73;517.63;;;8.80;99.90;;;;;;4439164;32;20587;-66
2022/01/03 22:24:14;;;;;;;542.93;515.90;;;9.00;99.90;;;;;;4438716;32;20209;-67
2022/01/03 22:26:41;;;;;;;533.67;507.53;;;8.90;99.90;;;;;;4438331;32;20174;-67
2022/01/03 22:29:10;;;;;;;563.60;535.37;;;8.90;99.90;;;;;;4438589;32;20216;-66
2022/01/03 22:31:39;;;;;;;546.13;518.27;;;8.90;99.90;;;;;;4438488;32;20211;-64
2022/01/03 22:34:07;;;;;;;552.97;524.97;;;8.90;99.90;;;;;;4438734;32;20635;-65
2022/01/03 22:36:35;;;;;;;550.43;523.27;;;8.90;99.90;;;;;;4439231;32;20205;-66
2022/01/03 22:39:02;;;;;;;544.40;516.77;;;8.90;99.90;;;;;;4437952;32;20167;-66
2022/01/03 22:41:29;;;;;;;573.47;543.90;;;8.80;99.90;;;;;;4438268;32;20155;-65
2022/01/03 22:43:56;;;;;;;546.13;517.50;;;8.80;99.90;;;;;;4438647;32;20208;-65
2022/01/03 22:46:23;;;;;;;565.60;536.90;;;8.80;99.90;;;;;;4438927;32;20168;-66
2022/01/03 22:48:56;;;;;;;565.97;536.97;;;8.80;99.90;;;;;;4438011;32;20186;-67
2022/01/03 22:51:26;;;;;;;562.00;533.13;;;8.80;99.90;;;;;;4436829;32;20156;-65
2022/01/03 22:53:57;;;;;;;564.53;535.80;;;8.80;99.90;;;;;;4437602;32;20200;-66
2022/01/03 22:56:24;;;;;;;563.30;535.13;;;8.80;99.90;;;;;;4439560;32;20213;-66
2022/01/03 22:58:54;;;;;;;569.23;539.20;;;8.80;99.90;;;;;;4438637;32;20171;-67
2022/01/03 23:01:23;;;;;;;546.03;517.80;;;8.80;99.90;;;;;;4438016;32;20166;-67
2022/01/03 23:03:53;;;;;;;568.10;538.87;;;8.70;99.90;;;;;;4441080;32;20177;-67
2022/01/03 23:06:26;;;;;;;568.47;539.10;;;8.70;99.90;;;;;;4445848;32;20162;-65
2022/01/03 23:08:53;;;;;;;542.00;515.13;;;8.80;99.90;;;;;;4439256;32;20149;-67
2022/01/03 23:11:21;;;;;;;559.47;531.33;;;8.80;99.90;;;;;;4435646;32;20156;-65
2022/01/03 23:13:48;;;;;;;556.97;528.50;;;8.70;99.90;;;;;;4437094;32;20197;-65
2022/01/03 23:16:19;;;;;;;559.20;531.03;;;8.80;99.90;;;;;;4437302;32;20208;-69
2022/01/03 23:18:46;;;;;;;558.53;530.33;;;8.80;99.90;;;;;;4438581;32;20151;-66
2022/01/03 23:21:28;;;;;;;551.43;523.57;;;8.90;99.90;;;;;;4437778;32;20192;-68
2022/01/03 23:23:59;;;;;;;534.23;506.30;;;8.90;99.90;;;;;;4435090;32;20240;-65
2022/01/03 23:26:26;;;;;;;518.90;492.07;;;8.80;99.90;;;;;;4438802;32;20187;-63
2022/01/03 23:28:55;;;;;;;524.40;498.33;;;8.80;99.90;;;;;;4437078;32;20158;-63
2022/01/03 23:31:22;;;;;;;537.73;510.70;;;8.70;99.90;;;;;;4443216;32;20567;-65
2022/01/03 23:33:50;;;;;;;549.13;521.50;;;8.70;99.90;;;;;;4449080;32;20176;-65
2022/01/03 23:36:17;;;;;;;559.43;530.97;;;8.70;99.90;;;;;;4437489;32;20187;-68
2022/01/03 23:38:47;;;;;;;551.37;523.07;;;8.80;99.90;;;;;;4437738;32;20163;-65
2022/01/03 23:41:30;;;;;;;541.07;513.17;;;8.80;99.90;;;;;;4437404;32;20156;-66
2022/01/03 23:43:57;;;;;;;533.07;505.67;;;8.80;99.90;;;;;;4434880;32;20198;-65
2022/01/03 23:46:24;;;;;;;517.27;491.90;;;8.90;99.90;;;;;;4438420;32;20171;-67
2022/01/03 23:48:52;;;;;;;544.50;517.03;;;8.80;99.90;;;;;;4436775;32;20203;-65
2022/01/03 23:51:19;;;;;;;536.17;508.20;;;8.90;99.90;;;;;;4437311;32;20147;-66
2022/01/03 23:53:48;;;;;;;540.33;513.10;;;8.90;99.90;;;;;;4438800;32;20152;-66
2022/01/03 23:56:19;;;;;;;533.00;506.47;;;8.90;99.90;;;;;;4437695;32;20176;-67
2022/01/03 23:58:45;;;;;;;520.03;493.57;;;8.80;99.90;;;;;;4436839;32;20203;-69
